Latest Weather Observations for Warrnambool

IDV60801

Issued at 7:03 am EST Thursday 29 June 2017 (issued every 30 minutes, with the page automatically refreshed every 10 minutes)

About weather observations | Map of weather stations | Latest weather observations for VIC | Other Formats
Station Details ID: 090186 Name: WARRNAMBOOL AIRPORT NDB Lat: -38.29 Lon: 142.45 Height: 70.8 m
Data from the previous 72 hours. | See also: Recent months at Warrnambool
Date/Time
EST
Temp
°C
App
Temp
°C
Dew
Point
°C
Rel
Hum
%
Delta-T
°C
Wind Press
QNH
hPa
Press
MSL
hPa
Rain since
9am
mm
Dir  Spd
km/h
Gust
km/h
Spd
kts
Gust
kts
29/07:00am 8.6 5.4 8.3 98 0.1 WNW 15 20 8 11 1022.4 1022.5 3.0
29/06:42am 8.7 5.9 8.6 99 0.0 WNW 13 17 7 9 1022.1 1022.2 3.0
29/06:37am 8.7 5.9 8.6 99 0.0 WNW 13 15 7 8 1022.2 1022.3 3.0
29/06:30am 8.6 6.2 8.5 99 0.0 WNW 11 15 6 8 1022.1 1022.2 3.0
29/06:10am 8.6 5.1 8.6 100 0.0 WNW 17 22 9 12 1022.0 1022.1 2.2
29/06:00am 8.6 5.1 8.6 100 0.0 WNW 17 20 9 11 1022.0 1022.1 2.0
29/05:30am 8.3 5.4 8.2 99 0.0 WNW 13 19 7 10 1021.7 1021.8 1.8
29/05:21am 8.4 5.6 8.4 100 0.0 WNW 13 22 7 12 1021.7 1021.8 1.6
29/05:00am 8.3 5.4 8.3 100 0.0 WNW 13 20 7 11 1021.6 1021.7 1.6
29/04:47am 8.3 5.1 8.3 100 0.0 NW 15 20 8 11 1021.7 1021.8 0.6
29/04:30am 8.2 4.2 8.1 99 0.0 NW 19 24 10 13 1021.6 1021.7 0.2
29/04:00am 8.0 3.9 7.9 99 0.0 NW 19 24 10 13 1021.7 1021.8 0.0
29/03:59am 8.1 4.0 8.0 99 0.0 NW 19 24 10 13 1021.7 1021.8 0.0
29/03:30am 7.8 4.8 7.7 99 0.0 NW 13 17 7 9 1021.9 1022.0 0.0
29/03:00am 7.6 3.7 7.3 98 0.1 NW 17 22 9 12 1022.0 1022.1 0.0
29/02:30am 7.4 3.5 7.1 98 0.1 NW 17 20 9 11 1022.1 1022.2 0.0
29/02:00am 7.3 3.8 7.0 98 0.1 NW 15 19 8 10 1022.2 1022.3 0.0
29/01:30am 7.0 4.1 6.6 97 0.2 NW 11 15 6 8 1022.3 1022.4 0.0
29/01:00am 7.2 3.3 6.9 98 0.1 NW 17 20 9 11 1022.2 1022.3 0.0
29/12:30am 5.6 2.0 5.0 96 0.3 NW 13 17 7 9 1022.4 1022.5 0.0
29/12:00am 7.1 3.9 6.8 98 0.1 NW 13 17 7 9 1022.6 1022.7 0.0
 
Date/Time
EST
Temp
°C
App
Temp
°C
Dew
Point
°C
Rel
Hum
%
Delta-T
°C
Wind Press
QNH
hPa
Press
MSL
hPa
Rain since
9am
mm
Dir  Spd
km/h
Gust
km/h
Spd
kts
Gust
kts
28/11:30pm 5.9 2.4 5.6 98 0.1 NNW 13 13 7 7 1022.8 1022.9 0.0
28/11:00pm 6.1 3.1 6.1 100 0.0 N 11 11 6 6 1022.6 1022.7 0.0
28/10:30pm 5.7 2.2 5.6 99 0.0 N 13 13 7 7 1022.5 1022.6 0.0
28/10:00pm 5.7 2.6 5.6 99 0.0 NNW 11 13 6 7 1022.6 1022.7 0.0
28/09:38pm 5.4 2.6 5.3 99 0.0 NNW 9 11 5 6 1022.5 1022.6 0.0
28/09:30pm 5.3 2.5 5.2 99 0.0 NNW 9 11 5 6 1022.5 1022.6 0.0
28/09:15pm 5.5 3.1 5.2 98 0.1 NNW 7 9 4 5 1022.5 1022.6 0.0
28/09:00pm 6.4 4.2 6.3 99 0.0 NNW 7 7 4 4 1022.5 1022.6 0.0
28/08:30pm 7.2 5.2 7.1 99 0.0 N 7 9 4 5 1022.4 1022.5 0.0
28/08:00pm 6.7 4.1 6.3 97 0.2 N 9 11 5 6 1022.4 1022.5 0.0
28/07:30pm 7.7 5.9 7.0 95 0.3 N 6 7 3 4 1022.4 1022.5 0.0
28/07:00pm 8.5 6.9 8.2 98 0.1 NNW 6 7 3 4 1022.3 1022.4 0.0
28/06:30pm 8.2 6.4 7.8 97 0.2 N 7 7 4 4 1022.2 1022.3 0.0
28/06:00pm 7.7 5.3 7.0 95 0.3 N 9 13 5 7 1021.9 1022.0 0.0
28/05:30pm 9.7 8.2 8.6 93 0.5 W 6 6 3 3 1021.8 1021.9 0.0
28/05:00pm 10.9 8.9 8.7 86 1.1 W 9 11 5 6 1021.6 1021.7 0.0
28/04:30pm 12.6 10.5 9.6 82 1.5 W 11 15 6 8 1021.3 1021.4 0.0
28/04:00pm 12.9 10.7 9.4 79 1.8 WNW 11 15 6 8 1021.2 1021.3 0.0
28/03:30pm 12.9 9.9 9.2 78 1.9 WNW 15 19 8 10 1021.1 1021.2 0.0
28/03:00pm 12.9 9.9 9.4 79 1.8 NW 15 20 8 11 1021.0 1021.1 0.0
28/02:30pm 12.4 10.6 9.4 82 1.5 WNW 9 15 5 8 1021.0 1021.1 0.0
28/02:00pm 13.5 9.2 9.2 75 2.2 NW 22 28 12 15 1021.2 1021.3 0.0
28/01:30pm 13.3 9.5 9.7 79 1.8 NW 20 28 11 15 1021.3 1021.4 0.0
28/01:00pm 13.2 8.6 9.8 80 1.7 NW 24 30 13 16 1021.6 1021.7 0.0
28/12:30pm 12.6 8.8 9.8 83 1.4 NNW 20 26 11 14 1021.8 1021.9 0.0
28/12:00pm 13.1 9.4 9.5 79 1.8 NNW 19 24 10 13 1022.0 1022.1 0.0
28/11:30am 12.4 8.4 9.1 80 1.7 NW 20 26 11 14 1022.3 1022.4 0.0
28/11:00am 12.6 8.7 9.4 81 1.6 NNW 20 28 11 15 1022.3 1022.4 0.0
28/10:30am 12.2 8.7 8.9 80 1.7 NNW 17 24 9 13 1022.3 1022.4 0.0
28/10:00am 10.8 6.8 8.4 85 1.2 N 19 26 10 14 1022.2 1022.3 0.0
28/09:30am 9.3 5.5 7.4 88 0.9 N 17 22 9 12 1022.2 1022.3 0.0
28/09:00am 8.0 3.9 6.3 89 0.8 N 17 22 9 12 1022.2 1022.3 0.0
28/08:30am 7.5 4.1 6.1 91 0.6 N 13 15 7 8 1022.2 1022.3 0.0
28/08:00am 7.4 3.3 6.0 91 0.6 N 17 20 9 11 1022.0 1022.1 0.0
28/07:30am 8.1 4.0 6.4 89 0.8 N 17 22 9 12 1021.8 1021.9 0.0
28/07:00am 8.1 3.7 6.4 89 0.8 N 19 22 10 12 1021.5 1021.6 0.0
28/06:30am 8.5 4.2 6.8 89 0.8 N 19 22 10 12 1021.4 1021.5 0.0
28/06:00am 8.6 4.7 6.9 89 0.8 N 17 20 9 11 1021.2 1021.3 0.0
28/05:30am 9.1 5.2 7.1 87 0.9 N 17 22 9 12 1021.0 1021.1 0.0
28/05:00am 9.2 4.9 7.2 87 0.9 N 19 26 10 14 1021.0 1021.1 0.0
28/04:30am 9.4 5.2 7.3 87 1.0 N 19 24 10 13 1021.1 1021.2 0.0
28/04:00am 9.6 5.2 7.4 86 1.0 N 20 26 11 14 1021.1 1021.2 0.0
28/03:30am 9.2 5.4 7.5 89 0.8 N 17 20 9 11 1021.4 1021.5 0.0
28/03:00am 9.0 5.6 7.6 91 0.7 N 15 19 8 10 1021.5 1021.6 0.0
28/02:30am 8.9 5.9 7.7 92 0.6 N 13 17 7 9 1021.5 1021.6 0.0
28/02:00am 9.0 5.2 7.6 91 0.7 N 17 20 9 11 1021.4 1021.5 0.0
28/01:30am 9.1 5.3 7.7 91 0.7 N 17 20 9 11 1021.3 1021.4 0.0
28/01:00am 9.1 4.9 7.5 90 0.8 N 19 22 10 12 1021.3 1021.4 0.0
28/12:30am 9.1 4.9 7.4 89 0.8 N 19 24 10 13 1021.5 1021.6 0.0
28/12:00am 9.1 4.9 7.5 90 0.8 N 19 22 10 12 1021.7 1021.8 0.0
 
Date/Time
EST
Temp
°C
App
Temp
°C
Dew
Point
°C
Rel
Hum
%
Delta-T
°C
Wind Press
QNH
hPa
Press
MSL
hPa
Rain since
9am
mm
Dir  Spd
km/h
Gust
km/h
Spd
kts
Gust
kts
27/11:30pm 8.0 4.8 6.9 93 0.5 N 13 17 7 9 1021.8 1021.9 0.0
27/11:00pm 7.8 4.2 6.7 93 0.5 N 15 20 8 11 1021.7 1021.8 0.0
27/10:30pm 7.7 4.4 6.6 93 0.5 N 13 15 7 8 1021.9 1022.0 0.0
27/10:00pm 7.8 4.5 6.4 91 0.6 N 13 17 7 9 1021.8 1021.9 0.0
27/09:30pm 7.7 4.0 6.2 90 0.7 N 15 17 8 9 1021.6 1021.7 0.0
27/09:00pm 9.0 5.5 7.0 87 0.9 NNE 15 20 8 11 1021.7 1021.8 0.0
27/08:30pm 9.1 5.6 7.4 89 0.8 NNE 15 17 8 9 1021.7 1021.8 0.0
27/08:00pm 9.6 6.1 7.2 85 1.1 N 15 17 8 9 1021.9 1022.0 0.0
27/07:30pm 9.9 6.8 7.2 83 1.3 N 13 17 7 9 1021.9 1022.0 0.0
27/07:00pm 9.3 6.2 7.1 86 1.0 NNE 13 15 7 8 1021.7 1021.8 0.0
27/06:30pm 10.1 6.6 7.2 82 1.4 N 15 19 8 10 1021.6 1021.7 0.0
27/06:00pm 10.0 6.5 7.1 82 1.4 N 15 19 8 10 1021.5 1021.6 0.0
27/05:30pm 10.6 7.1 7.3 80 1.6 N 15 20 8 11 1021.6 1021.7 0.0
27/05:00pm 11.2 7.7 7.1 76 2.0 N 15 17 8 9 1021.7 1021.8 0.0
27/04:30pm 11.6 7.8 7.5 76 2.0 N 17 20 9 11 1021.8 1021.9 0.0
27/04:00pm 11.9 7.4 7.0 72 2.3 N 20 28 11 15 1021.8 1021.9 0.0
27/03:30pm 12.9 8.7 7.4 69 2.7 N 19 24 10 13 1021.8 1021.9 0.0
27/03:00pm 12.5 7.6 6.8 68 2.7 N 22 28 12 15 1021.7 1021.8 0.0
27/02:30pm 13.2 8.0 7.4 68 2.8 NNW 24 33 13 18 1021.8 1021.9 0.0
27/02:00pm 12.7 8.4 7.2 69 2.7 N 19 26 10 14 1022.1 1022.2 0.0
27/01:30pm 12.7 8.2 6.3 65 3.0 N 19 26 10 14 1022.5 1022.6 0.0
27/01:00pm 12.3 9.0 8.2 76 2.0 N 15 19 8 10 1022.9 1023.0 0.0
27/12:30pm 11.6 8.1 7.3 75 2.1 N 15 19 8 10 1023.4 1023.5 0.0
27/12:00pm 11.4 8.5 8.1 80 1.6 NNE 13 17 7 9 1023.7 1023.8 0.0
27/11:30am 10.7 7.5 7.0 78 1.8 N 13 17 7 9 1024.2 1024.3 0.0
27/11:00am 9.8 6.8 7.9 88 0.9 NNE 13 15 7 8 1024.6 1024.7 0.0
27/10:30am 9.1 6.4 7.4 89 0.8 NNE 11 15 6 8 1024.7 1024.8 0.0
27/10:00am 8.5 5.0 7.3 92 0.6 NNE 15 17 8 9 1024.6 1024.7 0.0
27/09:30am 8.3 5.4 6.6 89 0.8 NNE 11 17 6 9 1024.5 1024.6 0.0
27/09:00am 7.9 5.0 6.5 91 0.6 NNE 11 15 6 8 1024.5 1024.6 0.2
27/08:30am 7.5 4.9 6.3 92 0.5 N 9 13 5 7 1024.5 1024.6 0.2
27/08:00am 7.6 4.6 5.9 89 0.8 NNE 11 13 6 7 1024.5 1024.6 0.2
27/07:30am 7.6 4.5 5.7 88 0.9 NNE 11 15 6 8 1024.6 1024.7 0.2
27/07:00am 7.6 5.0 5.9 89 0.8 NNE 9 13 5 7 1024.5 1024.6 0.2
27/06:30am 7.7 5.5 6.3 91 0.6 NE 7 9 4 5 1024.4 1024.5 0.2
27/06:00am 7.7 4.4 6.6 93 0.5 NNE 13 13 7 7 1024.4 1024.5 0.2
27/05:30am 7.5 4.7 6.9 96 0.3 NNE 11 13 6 7 1024.3 1024.4 0.2
27/05:00am 7.6 4.8 7.0 96 0.3 NNE 11 13 6 7 1024.3 1024.4 0.2
27/04:30am 7.7 4.9 7.0 95 0.3 NNE 11 13 6 7 1024.5 1024.6 0.2
27/04:00am 7.6 4.8 6.9 95 0.3 N 11 13 6 7 1024.8 1024.9 0.2
27/03:30am 7.8 4.7 7.1 95 0.3 N 13 15 7 8 1025.1 1025.2 0.2
27/03:00am 7.5 4.7 6.9 96 0.3 N 11 15 6 8 1025.1 1025.2 0.2
27/02:30am 7.7 4.6 7.1 96 0.3 N 13 15 7 8 1025.2 1025.3 0.2
27/02:00am 7.4 4.2 6.8 96 0.3 NNE 13 15 7 8 1025.0 1025.1 0.2
27/01:30am 7.6 4.4 7.0 96 0.3 N 13 15 7 8 1025.2 1025.3 0.2
27/01:00am 7.4 4.2 7.0 97 0.2 N 13 15 7 8 1025.4 1025.5 0.2
27/12:30am 6.6 3.6 6.2 97 0.2 N 11 13 6 7 1025.4 1025.5 0.2
27/12:00am 6.9 4.4 6.6 98 0.1 N 9 13 5 7 1025.5 1025.6 0.2
 
Date/Time
EST
Temp
°C
App
Temp
°C
Dew
Point
°C
Rel
Hum
%
Delta-T
°C
Wind Press
QNH
hPa
Press
MSL
hPa
Rain since
9am
mm
Dir  Spd
km/h
Gust
km/h
Spd
kts
Gust
kts
26/11:30pm 6.8 4.3 6.5 98 0.1 N 9 13 5 7 1025.7 1025.8 0.2
26/11:00pm 6.8 3.9 6.5 98 0.1 N 11 13 6 7 1025.9 1026.1 0.2
26/10:30pm 6.8 3.5 6.5 98 0.1 N 13 15 7 8 1025.8 1026.0 0.2
26/10:00pm 6.4 4.2 6.3 99 0.0 NE 7 11 4 6 1025.9 1026.1 0.2
26/09:30pm 5.5 2.8 5.4 99 0.0 N 9 11 5 6 1026.0 1026.2 0.2
26/09:00pm 5.0 2.5 4.6 97 0.2 N 7 11 4 6 1026.1 1026.3 0.2
26/08:30pm 5.4 2.9 5.0 97 0.2 N 7 7 4 4 1026.1 1026.3 0.2
26/08:00pm 5.8 3.4 5.4 97 0.2 NNW 7 7 4 4 1025.9 1026.1 0.2
26/07:30pm 5.7 3.3 5.3 97 0.2 NNW 7 7 4 4 1025.9 1026.1 0.2
26/07:00pm 5.0 3.4 4.3 95 0.3 NW 2 7 1 4 1025.6 1025.7 0.2
26/06:30pm 6.7 5.7 5.8 94 0.4 CALM 0 0 0 0 1025.4 1025.5 0.2
26/06:00pm 7.2 6.2 5.8 91 0.6 CALM 0 4 0 2 1025.4 1025.5 0.2
26/05:30pm 8.3 7.5 6.6 89 0.8 CALM 0 0 0 0 1025.0 1025.1 0.2
26/05:00pm 9.8 7.8 7.2 84 1.2 WSW 7 9 4 5 1024.7 1024.8 0.2
26/04:30pm 10.7 8.5 7.9 83 1.4 SSW 9 11 5 6 1024.6 1024.7 0.2
26/04:00pm 11.2 8.5 7.5 78 1.8 SSW 11 15 6 8 1024.5 1024.6 0.2
26/03:30pm 11.1 8.0 7.2 77 1.9 SW 13 19 7 10 1024.3 1024.4 0.2
26/03:00pm 11.7 9.8 7.6 76 2.0 SW 7 13 4 7 1024.3 1024.4 0.2
26/02:30pm 11.4 8.7 7.5 77 1.9 WSW 11 13 6 7 1024.1 1024.2 0.2
26/02:00pm 11.3 8.5 8.5 83 1.4 W 13 17 7 9 1024.1 1024.2 0.2
26/01:30pm 11.9 9.3 7.8 76 2.0 W 11 15 6 8 1024.1 1024.2 0.2
26/01:00pm 11.2 9.1 8.4 83 1.4 W 9 11 5 6 1024.3 1024.4 0.2
26/12:30pm 10.4 8.0 8.5 88 0.9 W 11 15 6 8 1024.5 1024.6 0.2
26/12:00pm 11.4 8.7 9.1 86 1.1 WSW 13 26 7 14 1024.8 1024.9 0.2
26/11:30am 11.6 9.4 9.2 85 1.2 WNW 11 15 6 8 1024.8 1024.9 0.2
26/11:00am 10.1 6.7 9.2 94 0.4 WNW 17 22 9 12 1025.0 1025.1 0.2
26/10:38am 9.6 7.3 9.0 96 0.3 WNW 11 15 6 8 1024.8 1024.9 0.2
26/10:30am 9.5 7.2 8.9 96 0.3 WNW 11 15 6 8 1024.8 1024.9 0.2
26/10:22am 9.6 6.5 9.0 96 0.3 W 15 20 8 11 1024.7 1024.8 0.2
26/10:00am 9.6 6.5 8.8 95 0.4 NW 15 19 8 10 1024.3 1024.4 0.0
26/09:30am 8.4 4.7 8.0 97 0.2 NW 17 22 9 12 1024.0 1024.1 0.0
26/09:05am 7.7 4.3 7.6 99 0.0 NW 15 20 8 11 1023.6 1023.7 0.0
26/09:00am 7.7 3.9 7.6 99 0.0 NW 17 20 9 11 1023.5 1023.6 4.8
26/08:43am 7.3 4.2 7.3 100 0.0 WNW 13 17 7 9 1023.3 1023.4 4.8
26/08:30am 6.3 3.3 6.2 99 0.0 NW 11 13 6 7 1023.0 1023.1 4.6
26/08:00am 5.2 1.6 4.9 98 0.1 NW 13 13 7 7 1022.7 1022.8 4.6
26/07:30am 5.4 1.5 5.3 99 0.0 NW 15 17 8 9 1022.5 1022.6 4.6

Other Formats:

Comma delimited format used in spreadsheet applications
http://www.bom.gov.au/fwo/IDV60801/IDV60801.94837.axf

JavaScript Object Notation format (JSON) in row-major order
http://www.bom.gov.au/fwo/IDV60801/IDV60801.94837.json